createdAt,value
2023-02-02T00:02:31.437Z,21.65
2023-02-02T00:05:35.290Z,9.93
2023-02-02T00:08:41.126Z,13.88
2023-02-02T00:14:53.089Z,13.02
2023-02-02T00:17:56.923Z,16.13
2023-02-02T00:21:02.838Z,11.98
2023-02-02T00:27:14.764Z,10.88
2023-02-02T00:30:19.628Z,9.88
2023-02-02T00:33:25.732Z,15.95
2023-02-02T00:39:35.208Z,18.55
2023-02-02T00:42:40.955Z,19.05
2023-02-02T00:45:46.913Z,12.88
2023-02-02T00:51:56.506Z,19.50
2023-02-02T00:58:07.924Z,12.27
2023-02-02T01:01:17.488Z,21.20
2023-02-02T01:04:24.589Z,27.50
2023-02-02T01:07:28.599Z,19.50
2023-02-02T01:10:36.454Z,15.10
2023-02-02T01:13:43.131Z,19.85
2023-02-02T01:16:49.308Z,19.90
2023-02-02T01:19:53.593Z,20.42
2023-02-02T01:22:59.435Z,23.50
2023-02-02T01:26:04.676Z,24.35
2023-02-02T01:29:15.021Z,25.45
2023-02-02T01:32:18.979Z,21.38
2023-02-02T01:35:25.602Z,17.45
2023-02-02T01:38:29.620Z,18.63
2023-02-02T01:41:35.622Z,22.15
2023-02-02T01:48:02.543Z,25.92
2023-02-02T01:51:10.445Z,26.73
2023-02-02T01:54:20.413Z,20.08
2023-02-02T01:57:29.676Z,17.42
2023-02-02T02:00:35.554Z,24.20
2023-02-02T02:06:47.660Z,17.83
2023-02-02T02:09:51.658Z,24.20
2023-02-02T02:12:57.758Z,21.63
2023-02-02T02:16:20.240Z,14.18
2023-02-02T02:20:03.887Z,12.63
2023-02-02T02:23:55.758Z,24.17
2023-02-02T02:27:28.207Z,21.92
2023-02-02T02:30:43.155Z,16.75
2023-02-02T02:33:58.744Z,33.25
2023-02-02T02:37:11.887Z,33.13
2023-02-02T02:40:25.493Z,19.48
2023-02-02T02:43:33.467Z,23.05
2023-02-02T02:46:40.283Z,16.63
2023-02-02T02:49:47.335Z,21.02
2023-02-02T02:53:01.840Z,29.23
2023-02-02T02:56:15.854Z,17.40
2023-02-02T02:59:33.330Z,32.55
2023-02-02T03:02:43.787Z,19.65
2023-02-02T03:05:57.432Z,21.13
2023-02-02T03:09:06.034Z,22.05
2023-02-02T03:12:12.084Z,20.52
2023-02-02T03:15:16.848Z,19.15
2023-02-02T03:18:26.730Z,20.17
2023-02-02T03:21:32.591Z,16.55
2023-02-02T03:24:38.443Z,21.65
2023-02-02T03:27:42.291Z,23.00
2023-02-02T03:30:49.852Z,24.08
2023-02-02T03:33:53.706Z,13.95
2023-02-02T03:37:01.481Z,14.80
2023-02-02T03:40:06.645Z,21.25
2023-02-02T03:43:12.481Z,24.13
2023-02-02T03:46:16.461Z,20.15
2023-02-02T03:49:22.739Z,11.73
2023-02-02T03:52:28.688Z,24.90
2023-02-02T03:55:34.600Z,19.20
2023-02-02T04:01:44.293Z,16.50
2023-02-02T04:04:48.136Z,20.90
2023-02-02T04:07:56.220Z,21.90
2023-02-02T04:11:00.122Z,16.98
2023-02-02T04:14:06.501Z,19.50
2023-02-02T04:17:10.919Z,20.77
2023-02-02T04:20:16.731Z,16.75
2023-02-02T04:23:22.496Z,9.52
2023-02-02T04:26:28.808Z,13.77
2023-02-02T04:29:32.706Z,10.55
2023-02-02T04:32:38.688Z,11.60
2023-02-02T04:35:43.851Z,11.18
2023-02-02T04:38:53.590Z,19.85
2023-02-02T04:41:57.648Z,14.57
2023-02-02T04:45:03.857Z,7.82
2023-02-02T04:48:07.769Z,10.70
2023-02-02T04:51:15.917Z,8.77
2023-02-02T04:54:21.658Z,12.88
2023-02-02T04:57:27.676Z,5.82
2023-02-02T05:00:31.592Z,9.60
2023-02-02T05:03:37.408Z,6.35
2023-02-02T05:09:49.022Z,3.70
2023-02-02T05:12:54.593Z,4.28
2023-02-02T05:16:00.453Z,4.65
2023-02-02T05:19:04.744Z,6.03
2023-02-02T05:22:10.863Z,5.55
2023-02-02T05:25:16.772Z,5.03
2023-02-02T05:28:25.211Z,2.35
2023-02-02T05:31:30.192Z,2.90
2023-02-02T05:34:36.189Z,3.60
2023-02-02T05:37:40.119Z,3.05
2023-02-02T05:40:50.476Z,3.25
2023-02-02T05:43:54.640Z,3.70
2023-02-02T05:47:00.462Z,5.78
2023-02-02T05:50:04.378Z,2.97
2023-02-02T05:53:11.057Z,2.70
2023-02-02T05:56:17.175Z,2.20
2023-02-02T05:59:23.669Z,1.95
2023-02-02T06:02:27.519Z,4.25
2023-02-02T06:05:33.332Z,5.32
2023-02-02T06:08:37.679Z,6.93
2023-02-02T06:11:47.327Z,3.85
2023-02-02T06:14:51.153Z,2.08
2023-02-02T06:17:57.814Z,2.72
2023-02-02T06:21:02.959Z,3.97
2023-02-02T06:24:09.257Z,2.40
2023-02-02T06:27:15.019Z,3.08
2023-02-02T06:30:21.000Z,3.25
2023-02-02T06:33:24.844Z,2.20
2023-02-02T06:36:30.708Z,4.35
2023-02-02T06:42:42.163Z,0.80
2023-02-02T06:45:45.980Z,1.73
2023-02-02T06:48:51.857Z,0.85
2023-02-02T06:55:01.300Z,1.70
2023-02-02T07:01:14.579Z,4.60
2023-02-02T07:04:18.778Z,2.50
2023-02-02T07:07:24.643Z,2.65
2023-02-02T07:11:12.048Z,2.80
2023-02-02T07:13:56.189Z,1.40
2023-02-02T07:17:00.073Z,2.05
2023-02-02T07:20:06.904Z,1.70
2023-02-02T07:23:10.726Z,1.80
2023-02-02T07:26:17.927Z,1.35
2023-02-02T07:29:23.733Z,3.35
2023-02-02T07:32:29.639Z,2.22
2023-02-02T07:38:39.344Z,1.40
2023-02-02T07:41:44.238Z,1.40
2023-02-02T07:45:35.869Z,4.13
2023-02-02T07:48:29.486Z,5.22
2023-02-02T07:51:37.351Z,3.83
2023-02-02T07:54:41.972Z,4.28
2023-02-02T07:57:47.811Z,9.35
2023-02-02T08:04:00.850Z,3.00
2023-02-02T08:07:04.889Z,6.63
2023-02-02T08:10:12.108Z,5.82
2023-02-02T08:13:15.985Z,2.70
2023-02-02T08:16:24.705Z,6.40
2023-02-02T08:19:28.570Z,2.92
2023-02-02T08:22:34.354Z,4.07
2023-02-02T08:28:45.521Z,2.63
2023-02-02T08:31:51.469Z,4.30
2023-02-02T08:34:57.523Z,4.32
2023-02-02T08:38:02.421Z,6.00
2023-02-02T08:41:09.576Z,3.28
2023-02-02T08:44:16.788Z,6.45
2023-02-02T08:47:24.684Z,4.15
2023-02-02T08:50:28.837Z,3.00
2023-02-02T08:53:35.324Z,4.25
2023-02-02T08:56:39.287Z,3.53
2023-02-02T08:59:45.111Z,5.05
2023-02-02T09:05:59.112Z,2.47
2023-02-02T09:12:09.177Z,2.33
2023-02-02T09:15:13.352Z,5.05
2023-02-02T09:18:21.118Z,7.80
2023-02-02T09:21:25.524Z,2.55
2023-02-02T09:24:31.427Z,5.60
2023-02-02T09:27:40.436Z,5.00
2023-02-02T09:30:46.290Z,3.72
2023-02-02T09:36:57.709Z,3.58
2023-02-02T09:43:15.092Z,3.38
2023-02-02T09:46:28.704Z,6.63
2023-02-02T09:49:42.177Z,7.95
2023-02-02T09:52:50.925Z,6.85
2023-02-02T09:56:00.177Z,6.82
2023-02-02T09:59:19.243Z,12.05
2023-02-02T10:02:30.352Z,4.90
2023-02-02T10:05:46.985Z,8.65
2023-02-02T10:08:57.009Z,7.45
2023-02-02T10:12:06.665Z,3.20
2023-02-02T10:15:22.199Z,5.97
2023-02-02T10:18:34.757Z,5.40
2023-02-02T10:21:48.170Z,8.90
2023-02-02T10:24:52.716Z,10.95
2023-02-02T10:28:05.517Z,7.38
2023-02-02T10:31:19.550Z,7.60
2023-02-02T10:34:29.791Z,4.28
2023-02-02T10:37:40.213Z,11.43
2023-02-02T10:40:56.117Z,10.68
2023-02-02T10:44:15.346Z,12.35
2023-02-02T10:47:26.836Z,8.57
2023-02-02T10:50:30.736Z,9.43
2023-02-02T10:53:39.539Z,16.73
2023-02-02T10:56:47.652Z,12.93
2023-02-02T11:00:05.376Z,17.92
2023-02-02T11:03:11.656Z,27.92
2023-02-02T11:06:31.198Z,20.77
2023-02-02T11:09:41.469Z,16.77
2023-02-02T11:12:52.419Z,11.85
2023-02-02T11:16:21.427Z,11.07
2023-02-02T11:19:31.147Z,6.95
2023-02-02T11:22:37.998Z,11.57
2023-02-02T11:25:46.073Z,6.57
2023-02-02T11:28:51.730Z,7.97
2023-02-02T11:31:57.709Z,15.00
2023-02-02T11:35:18.472Z,16.02
2023-02-02T11:38:24.848Z,9.32
2023-02-02T11:41:33.094Z,11.07
2023-02-02T11:44:41.139Z,12.32
2023-02-02T11:47:46.418Z,10.13
2023-02-02T11:50:54.111Z,18.60
2023-02-02T11:54:06.084Z,13.02
2023-02-02T11:57:20.030Z,21.55
2023-02-02T12:00:26.575Z,19.77
2023-02-02T12:03:36.235Z,16.15
2023-02-02T12:06:40.887Z,18.98
2023-02-02T12:09:47.371Z,10.18
2023-02-02T12:13:02.111Z,10.80
2023-02-02T12:16:21.146Z,15.88
2023-02-02T12:19:51.583Z,17.20
2023-02-02T12:23:24.115Z,11.35
2023-02-02T12:26:32.685Z,16.15
2023-02-02T12:29:57.079Z,14.23
2023-02-02T12:33:24.754Z,11.48
2023-02-02T12:36:44.347Z,9.75
2023-02-02T12:40:03.541Z,9.57
2023-02-02T12:43:24.658Z,12.20
2023-02-02T12:46:47.120Z,10.93
2023-02-02T12:53:26.124Z,17.35
2023-02-02T12:56:37.924Z,18.10
2023-02-02T13:00:05.519Z,12.65
2023-02-02T13:03:29.011Z,17.42
2023-02-02T13:07:04.705Z,25.48
2023-02-02T13:10:18.647Z,17.23
2023-02-02T13:13:27.804Z,14.95
2023-02-02T13:16:37.314Z,23.52
2023-02-02T13:19:46.896Z,20.05
2023-02-02T13:22:57.832Z,19.02
2023-02-02T13:26:04.975Z,15.90
2023-02-02T13:29:26.132Z,14.90
2023-02-02T13:32:34.809Z,19.40
2023-02-02T13:35:51.304Z,14.32
2023-02-02T13:38:57.909Z,24.65
2023-02-02T13:42:16.147Z,23.92
2023-02-02T13:45:40.426Z,24.33
2023-02-02T13:48:54.902Z,17.40
2023-02-02T13:52:18.953Z,26.50
2023-02-02T13:55:44.618Z,20.58
2023-02-02T13:59:13.621Z,22.65
2023-02-02T14:02:25.308Z,11.32
2023-02-02T14:05:31.866Z,20.40
2023-02-02T14:08:44.706Z,25.23
2023-02-02T14:11:56.919Z,10.27
2023-02-02T14:18:06.926Z,17.17
2023-02-02T14:21:12.685Z,18.92
2023-02-02T14:24:44.837Z,15.50
2023-02-02T14:28:00.129Z,22.48
2023-02-02T14:31:33.683Z,23.65
2023-02-02T14:34:41.067Z,11.30
2023-02-02T14:37:51.547Z,12.27
2023-02-02T14:41:06.940Z,7.95
2023-02-02T14:44:09.864Z,12.57
2023-02-02T14:47:43.668Z,12.20
2023-02-02T14:50:51.330Z,9.48
2023-02-02T14:54:01.160Z,11.40
2023-02-02T14:57:23.203Z,6.60
2023-02-02T15:00:33.007Z,9.05
2023-02-02T15:03:47.495Z,8.52
2023-02-02T15:06:54.165Z,12.10
2023-02-02T15:09:58.033Z,9.68
2023-02-02T15:13:09.008Z,12.50
2023-02-02T15:16:22.284Z,15.18
2023-02-02T15:19:35.787Z,13.15
2023-02-02T15:22:45.020Z,9.88
2023-02-02T15:25:57.171Z,9.45
2023-02-02T15:29:08.136Z,12.32
2023-02-02T15:32:19.756Z,14.55
2023-02-02T15:35:28.127Z,10.45
2023-02-02T15:38:37.002Z,16.65
2023-02-02T15:41:45.715Z,13.30
2023-02-02T15:44:53.445Z,16.58
2023-02-02T15:47:58.009Z,13.43
2023-02-02T15:51:08.548Z,16.00
2023-02-02T15:54:24.471Z,15.98
2023-02-02T15:57:32.589Z,11.85
2023-02-02T16:00:39.439Z,16.58
2023-02-02T16:03:51.115Z,12.68
2023-02-02T16:06:56.431Z,14.45
2023-02-02T16:10:07.473Z,9.00
2023-02-02T16:13:24.139Z,10.45
2023-02-02T16:16:33.451Z,12.93
2023-02-02T16:19:37.777Z,14.70
2023-02-02T16:22:46.932Z,7.93
2023-02-02T16:25:54.111Z,11.45
2023-02-02T16:29:00.151Z,8.35
2023-02-02T16:32:07.149Z,9.52
2023-02-02T16:35:32.784Z,6.60
2023-02-02T16:38:38.941Z,8.10
2023-02-02T16:41:48.492Z,14.25
2023-02-02T16:44:52.555Z,10.57
2023-02-02T16:48:25.756Z,8.77
2023-02-02T16:51:33.748Z,7.15
2023-02-02T16:54:43.175Z,4.57
2023-02-02T16:57:50.520Z,5.68
2023-02-02T17:01:19.387Z,8.02
2023-02-02T17:04:27.965Z,6.93
2023-02-02T17:07:36.980Z,6.53
2023-02-02T17:10:43.185Z,7.38
2023-02-02T17:13:50.243Z,8.85
2023-02-02T17:16:54.141Z,10.63
2023-02-02T17:20:01.911Z,6.18
2023-02-02T17:23:09.113Z,6.78
2023-02-02T17:26:16.376Z,10.50
2023-02-02T17:29:22.331Z,5.93
2023-02-02T17:32:28.151Z,8.18
2023-02-02T17:35:51.585Z,11.73
2023-02-02T17:38:58.679Z,8.35
2023-02-02T17:42:02.456Z,7.72
2023-02-02T17:45:14.867Z,6.60
2023-02-02T17:48:19.987Z,7.50
2023-02-02T17:51:29.659Z,8.45
2023-02-02T17:54:33.474Z,10.30
2023-02-02T17:57:39.323Z,10.55
2023-02-02T18:00:44.307Z,10.23
2023-02-02T18:03:50.269Z,14.38
2023-02-02T18:10:01.663Z,13.90
2023-02-02T18:16:12.192Z,13.95
2023-02-02T18:19:16.149Z,13.35
2023-02-02T18:22:24.171Z,14.57
2023-02-02T18:25:28.433Z,20.35
2023-02-02T18:28:34.389Z,15.63
2023-02-02T18:31:40.011Z,18.75
2023-02-02T18:34:50.622Z,17.13
2023-02-02T18:37:57.176Z,22.95
2023-02-02T18:41:03.436Z,17.42
2023-02-02T18:44:07.337Z,23.33
2023-02-02T18:47:13.171Z,24.27
2023-02-02T18:50:17.755Z,19.35
2023-02-02T18:53:25.528Z,18.90
2023-02-02T18:56:29.940Z,19.38
2023-02-02T18:59:35.769Z,28.85
2023-02-02T19:02:40.060Z,23.35
2023-02-02T19:06:01.738Z,23.33
2023-02-02T19:09:08.289Z,19.00
2023-02-02T19:12:15.962Z,27.90
2023-02-02T19:15:19.885Z,25.15
2023-02-02T19:18:26.032Z,22.38
2023-02-02T19:21:32.043Z,21.83
2023-02-02T19:24:41.748Z,23.98
2023-02-02T19:27:45.562Z,24.40
2023-02-02T19:30:52.729Z,17.05
2023-02-02T19:33:57.038Z,22.50
2023-02-02T19:37:10.950Z,25.45
2023-02-02T19:40:25.176Z,24.85
2023-02-02T19:43:32.428Z,20.98
2023-02-02T19:46:43.729Z,25.90
2023-02-02T19:49:49.582Z,31.50
2023-02-02T19:52:54.789Z,17.70
2023-02-02T19:56:04.230Z,17.95
2023-02-02T19:59:13.883Z,24.20
2023-02-02T20:02:45.073Z,23.02
2023-02-02T20:05:50.931Z,22.65
2023-02-02T20:08:56.730Z,32.70
2023-02-02T20:12:02.534Z,24.65
2023-02-02T20:15:25.852Z,28.60
2023-02-02T20:18:40.324Z,23.00
2023-02-02T20:21:48.325Z,24.33
2023-02-02T20:24:52.277Z,30.60
2023-02-02T20:28:00.210Z,31.23
2023-02-02T20:31:06.402Z,23.15
2023-02-02T20:34:26.352Z,24.92
2023-02-02T20:37:33.142Z,25.10
2023-02-02T20:40:38.953Z,24.58
2023-02-02T20:43:45.630Z,20.02
2023-02-02T20:46:51.882Z,36.13
2023-02-02T20:49:56.701Z,25.48
2023-02-02T20:53:02.590Z,32.05
2023-02-02T20:56:07.296Z,30.65
2023-02-02T20:59:15.164Z,26.08
2023-02-02T21:02:20.158Z,27.13
2023-02-02T21:05:26.338Z,28.38
2023-02-02T21:08:30.147Z,26.73
2023-02-02T21:11:36.177Z,23.58
2023-02-02T21:14:44.276Z,24.95
2023-02-02T21:17:50.065Z,24.60
2023-02-02T21:20:53.913Z,22.95
2023-02-02T21:24:00.411Z,22.83
2023-02-02T21:27:04.454Z,23.33
2023-02-02T21:30:14.801Z,19.75
2023-02-02T21:33:18.561Z,26.13
2023-02-02T21:36:34.187Z,23.70
2023-02-02T21:39:39.488Z,27.60
2023-02-02T21:42:49.115Z,21.50
2023-02-02T21:45:56.655Z,25.88
2023-02-02T21:49:02.978Z,30.65
2023-02-02T21:52:16.118Z,26.85
2023-02-02T21:55:33.655Z,24.05
2023-02-02T21:58:38.758Z,28.90
2023-02-02T22:01:47.452Z,25.38
2023-02-02T22:04:51.244Z,31.25
2023-02-02T22:08:00.143Z,23.73
2023-02-02T22:11:03.936Z,31.95
2023-02-02T22:14:19.931Z,26.10
2023-02-02T22:17:27.220Z,24.13
2023-02-02T22:20:37.675Z,22.50
2023-02-02T22:23:41.883Z,33.00
2023-02-02T22:26:49.719Z,26.67
2023-02-02T22:29:59.329Z,22.90
2023-02-02T22:33:07.836Z,27.75
2023-02-02T22:36:11.654Z,22.85
2023-02-02T22:39:17.682Z,27.50
2023-02-02T22:42:21.580Z,23.67
2023-02-02T22:45:27.702Z,28.27
2023-02-02T22:48:33.441Z,25.58
2023-02-02T22:51:39.205Z,25.42
2023-02-02T22:54:42.968Z,24.67
2023-02-02T22:57:49.413Z,23.40
2023-02-02T23:00:53.663Z,21.65
2023-02-02T23:04:01.360Z,18.95
2023-02-02T23:07:05.238Z,17.55
2023-02-02T23:10:12.308Z,24.13
2023-02-02T23:13:17.002Z,28.25
2023-02-02T23:16:22.847Z,24.15
2023-02-02T23:19:30.656Z,25.13
2023-02-02T23:22:34.466Z,23.20
2023-02-02T23:25:40.236Z,18.35
2023-02-02T23:28:44.055Z,23.80
2023-02-02T23:31:49.864Z,22.60
2023-02-02T23:34:55.538Z,29.80
2023-02-02T23:38:01.309Z,17.23
2023-02-02T23:41:05.075Z,17.75
2023-02-02T23:44:10.996Z,20.33
2023-02-02T23:50:22.215Z,18.17
2023-02-02T23:53:26.334Z,16.75
2023-02-02T23:56:32.609Z,24.60
2023-02-02T23:59:36.357Z,21.33
